Time;durP1;ratioP1;P1;durP2;ratioP2;P2;SDS_P1;SDS_P2;PMS_P1;PMS_P2;Temp;Humidity;BMP_temperature;BMP_pressure;BME280_temperature;BME280_humidity;BME280_pressure;Samples;Min_cycle;Max_cycle;Signal;HPM_P1;HPM_P2
2023/01/15 00:02:17;;;;;;;2.97;0.67;;;;;;;10.42;79.72;95280.84;4978898;28;20285;-70
2023/01/15 00:04:43;;;;;;;0.47;0.40;;;;;;;10.36;80.03;95281.63;4978058;28;20203;-70
2023/01/15 00:07:09;;;;;;;1.17;0.67;;;;;;;10.39;79.42;95277.78;4977920;28;20226;-70
2023/01/15 00:09:36;;;;;;;0.73;0.50;;;;;;;10.25;79.47;95276.13;4978420;28;20207;-70
2023/01/15 00:12:03;;;;;;;1.20;0.50;;;;;;;10.30;80.68;95272.88;4978351;28;20238;-70
2023/01/15 00:14:29;;;;;;;0.67;0.60;;;;;;;10.33;78.23;95265.41;4978210;28;20199;-70
2023/01/15 00:16:56;;;;;;;0.70;0.60;;;;;;;10.26;78.84;95263.75;4978227;28;20235;-70
2023/01/15 00:19:23;;;;;;;0.93;0.50;;;;;;;10.41;78.26;95270.47;4978061;28;20199;-70
2023/01/15 00:21:51;;;;;;;1.20;0.60;;;;;;;10.28;77.93;95262.53;4978671;28;20226;-70
2023/01/15 00:29:46;;;;;;;1.63;0.77;;;;;;;10.51;75.93;95247.19;4978508;28;20206;-70
2023/01/15 00:32:12;;;;;;;0.60;0.60;;;;;;;10.48;75.66;95243.16;4978282;28;20199;-70
2023/01/15 00:34:40;;;;;;;0.53;0.53;;;;;;;10.50;76.39;95229.78;4976637;28;20621;-70
2023/01/15 00:37:06;;;;;;;3.30;0.67;;;;;;;10.47;75.47;95224.91;4977651;28;20281;-71
2023/01/15 00:39:34;;;;;;;0.67;0.60;;;;;;;10.47;74.73;95219.66;4978498;28;20200;-70
2023/01/15 00:42:00;;;;;;;0.70;0.60;;;;;;;10.46;75.29;95216.22;4978193;28;20226;-70
2023/01/15 00:44:27;;;;;;;0.70;0.50;;;;;;;10.54;72.87;95216.00;4977253;28;20203;-70
2023/01/15 00:46:53;;;;;;;2.93;0.63;;;;;;;10.53;73.73;95213.59;4978444;28;20338;-70
2023/01/15 00:49:20;;;;;;;0.93;0.60;;;;;;;10.62;71.20;95215.81;4977766;28;20223;-71
2023/01/15 00:51:49;;;;;;;0.80;0.60;;;;;;;10.86;69.43;95203.84;4978557;28;20207;-70
2023/01/15 00:54:15;;;;;;;0.40;0.40;;;;;;;10.78;69.65;95204.88;4977259;28;20746;-70
2023/01/15 00:56:42;;;;;;;0.90;0.60;;;;;;;10.87;68.94;95203.66;4977686;28;20222;-70
2023/01/15 00:59:08;;;;;;;1.10;0.80;;;;;;;10.87;67.17;95190.50;4977676;28;20203;-70
2023/01/15 01:01:35;;;;;;;0.40;0.40;;;;;;;10.87;67.09;95192.31;4978709;28;20203;-70
2023/01/15 01:04:02;;;;;;;1.27;0.50;;;;;;;10.93;66.31;95171.22;4977058;28;20203;-71
2023/01/15 01:06:28;;;;;;;0.70;0.50;;;;;;;11.03;64.97;95175.03;4978147;28;20195;-71
2023/01/15 01:08:56;;;;;;;0.73;0.50;;;;;;;11.01;65.98;95174.47;4977282;28;20231;-71
2023/01/15 01:11:25;;;;;;;0.83;0.40;;;;;;;11.14;63.60;95165.72;4978245;28;20203;-71
2023/01/15 01:13:53;;;;;;;1.47;0.60;;;;;;;11.21;63.85;95167.31;4976521;28;20207;-70
2023/01/15 01:16:26;;;;;;;0.77;0.47;;;;;;;11.35;63.87;95166.25;4978037;28;20222;-70
2023/01/15 01:18:53;;;;;;;1.13;0.60;;;;;;;11.33;63.03;95149.00;4978954;28;20199;-70
2023/01/15 01:21:20;;;;;;;0.43;0.43;;;;;;;11.35;62.68;95160.97;4982661;28;20203;-70
2023/01/15 01:23:46;;;;;;;1.70;0.50;;;;;;;11.39;62.71;95158.75;4981167;28;20207;-70
2023/01/15 01:26:14;;;;;;;0.43;0.43;;;;;;;11.45;63.01;95153.44;4981589;28;20214;-70
2023/01/15 01:28:41;;;;;;;0.73;0.57;;;;;;;11.43;62.88;95144.94;4981473;28;20238;-70
2023/01/15 01:31:09;;;;;;;0.23;0.23;;;;;;;11.51;62.91;95139.47;4981673;28;20214;-70
2023/01/15 01:33:35;;;;;;;0.90;0.50;;;;;;;11.52;63.33;95148.19;4981266;28;20210;-70
2023/01/15 01:36:02;;;;;;;0.40;0.40;;;;;;;11.50;63.56;95145.75;4981137;28;20207;-70
2023/01/15 01:38:29;;;;;;;3.70;0.70;;;;;;;11.48;63.73;95146.94;4981158;28;20226;-70
2023/01/15 01:40:55;;;;;;;0.40;0.40;;;;;;;11.53;63.71;95144.53;4981334;28;20207;-70
2023/01/15 01:43:25;;;;;;;1.47;0.50;;;;;;;11.66;63.34;95134.75;4981529;28;20667;-70
2023/01/15 01:45:52;;;;;;;0.30;0.30;;;;;;;11.51;63.84;95142.09;4980723;28;20234;-70
2023/01/15 01:48:23;;;;;;;0.37;0.30;;;;;;;11.67;63.65;95128.41;4981085;28;20242;-70
2023/01/15 01:50:51;;;;;;;0.60;0.40;;;;;;;11.69;63.67;95129.03;4981316;28;20222;-70
2023/01/15 01:53:21;;;;;;;0.60;0.50;;;;;;;11.72;63.85;95128.59;4980909;28;20215;-70
2023/01/15 01:55:49;;;;;;;0.63;0.43;;;;;;;11.65;64.47;95117.28;4980315;28;20206;-70
2023/01/15 01:58:17;;;;;;;1.17;0.50;;;;;;;11.63;64.61;95119.31;4981151;28;20223;-70
2023/01/15 02:00:50;;;;;;;1.03;0.40;;;;;;;11.57;64.86;95113.06;4980833;28;20617;-70
2023/01/15 02:03:18;;;;;;;0.40;0.40;;;;;;;11.62;64.86;95100.03;4981484;28;20207;-71
2023/01/15 02:05:48;;;;;;;0.70;0.60;;;;;;;11.73;65.72;95095.91;4979633;28;20210;-70
2023/01/15 02:08:15;;;;;;;0.57;0.43;;;;;;;11.51;66.23;95093.78;4980506;28;20237;-71
2023/01/15 02:10:41;;;;;;;0.83;0.50;;;;;;;11.47;66.89;95098.66;4980324;28;20207;-70
2023/01/15 02:13:13;;;;;;;3.47;0.97;;;;;;;11.51;68.24;95084.06;4982204;28;20199;-70
2023/01/15 02:15:45;;;;;;;0.47;0.47;;;;;;;11.52;67.36;95085.69;4979857;28;20207;-70
2023/01/15 02:18:20;;;;;;;0.73;0.60;;;;;;;11.55;68.13;95070.22;4980571;28;20219;-70
2023/01/15 02:20:50;;;;;;;0.73;0.47;;;;;;;11.51;68.62;95073.50;4980765;28;20199;-71
2023/01/15 02:23:29;;;;;;;2.33;0.50;;;;;;;11.51;70.86;95057.69;4980943;28;20564;-70
2023/01/15 02:26:07;;;;;;;0.40;0.40;;;;;;;11.43;71.47;95071.09;4979858;28;20211;-70
2023/01/15 02:28:37;;;;;;;0.73;0.40;;;;;;;11.32;71.97;95065.66;4980636;28;20226;-70
2023/01/15 02:31:09;;;;;;;0.30;0.30;;;;;;;11.21;72.23;95051.28;4979387;28;20699;-71
2023/01/15 02:33:38;;;;;;;0.40;0.40;;;;;;;11.21;72.40;95038.09;4979864;28;20225;-71
2023/01/15 02:36:08;;;;;;;0.97;0.40;;;;;;;11.23;72.17;95054.53;4981032;28;20214;-70
2023/01/15 02:38:40;;;;;;;0.90;0.57;;;;;;;11.26;72.86;95058.59;4980338;28;20699;-70
2023/01/15 02:41:15;;;;;;;3.00;0.60;;;;;;;11.26;71.99;95042.75;4980757;28;20214;-70
2023/01/15 02:43:45;;;;;;;0.73;0.60;;;;;;;11.39;71.52;95050.59;4979442;28;20285;-70
2023/01/15 02:46:15;;;;;;;0.77;0.37;;;;;;;11.28;72.02;95072.38;4980492;28;20214;-70
2023/01/15 02:48:45;;;;;;;0.50;0.50;;;;;;;11.24;72.50;95060.59;4979933;28;20235;-70
2023/01/15 02:51:15;;;;;;;0.73;0.73;;;;;;;11.34;71.07;95058.34;4980265;28;20203;-70
2023/01/15 02:53:44;;;;;;;0.77;0.50;;;;;;;11.33;71.11;95056.72;4979780;28;20200;-70
2023/01/15 02:56:15;;;;;;;1.10;0.73;;;;;;;11.44;70.30;95056.84;4980620;28;20203;-70
2023/01/15 02:58:44;;;;;;;1.67;0.50;;;;;;;11.52;70.88;95059.31;4979595;28;20612;-70
2023/01/15 03:01:14;;;;;;;0.40;0.40;;;;;;;11.40;70.89;95060.94;4980592;28;20206;-70
2023/01/15 03:03:48;;;;;;;0.60;0.50;;;;;;;11.58;70.32;95039.97;4979231;28;20203;-70
2023/01/15 03:06:19;;;;;;;0.50;0.50;;;;;;;11.50;70.74;95047.34;4980157;28;20203;-70
2023/01/15 03:08:46;;;;;;;1.17;0.50;;;;;;;11.48;70.56;95052.81;4979735;28;20920;-70
2023/01/15 03:11:14;;;;;;;0.70;0.40;;;;;;;11.50;71.04;95031.53;4979761;28;20199;-71
2023/01/15 03:13:47;;;;;;;0.50;0.50;;;;;;;11.61;70.02;95036.94;4978955;28;20204;-70
2023/01/15 03:16:36;;;;;;;0.50;0.50;;;;;;;11.61;70.60;95055.41;4979694;28;20219;-70
2023/01/15 03:19:12;;;;;;;0.40;0.40;;;;;;;11.61;70.71;95052.78;4979203;28;20294;-70
2023/01/15 03:21:46;;;;;;;0.50;0.50;;;;;;;11.59;70.39;95065.34;4979592;28;20195;-70
2023/01/15 03:24:18;;;;;;;0.50;0.50;;;;;;;11.68;70.54;95058.81;4979839;28;20203;-70
2023/01/15 03:26:44;;;;;;;0.57;0.40;;;;;;;11.60;70.10;95065.13;4980550;28;20230;-70
2023/01/15 03:29:14;;;;;;;0.40;0.40;;;;;;;11.73;69.91;95051.06;4978784;28;20223;-70
2023/01/15 03:31:43;;;;;;;0.93;0.60;;;;;;;11.57;70.37;95054.22;4979315;28;20431;-70
2023/01/15 03:34:10;;;;;;;0.50;0.50;;;;;;;11.64;70.13;95047.06;4978610;28;20230;-70
2023/01/15 03:36:37;;;;;;;1.87;0.60;;;;;;;11.61;70.67;95042.22;4979411;28;20203;-70
2023/01/15 03:39:04;;;;;;;2.67;0.47;;;;;;;11.58;70.58;95043.44;4979580;28;20207;-70
2023/01/15 03:41:42;;;;;;;0.63;0.50;;;;;;;11.65;70.45;95043.41;4979716;28;20203;-70
2023/01/15 03:44:19;;;;;;;0.50;0.50;;;;;;;11.69;70.59;95042.75;4978241;28;20210;-70
2023/01/15 03:46:55;;;;;;;0.33;0.33;;;;;;;11.58;70.67;95047.91;4978520;28;20703;-70
2023/01/15 03:49:46;;;;;;;0.40;0.40;;;;;;;11.64;70.84;95047.06;4978406;28;20223;-70
2023/01/15 03:52:18;;;;;;;0.40;0.40;;;;;;;11.55;71.71;95021.16;4978643;28;20695;-70
2023/01/15 03:54:50;;;;;;;0.40;0.40;;;;;;;11.58;71.76;95038.16;4977940;28;20203;-69
2023/01/15 03:57:26;;;;;;;0.60;0.53;;;;;;;11.56;72.35;95028.84;4979208;28;20231;-70
2023/01/15 03:59:57;;;;;;;1.47;0.90;;;;;;;11.52;72.60;95019.75;4978223;28;20202;-70
2023/01/15 04:02:25;;;;;;;0.63;0.47;;;;;;;11.53;72.89;95023.97;4978994;28;20207;-70
2023/01/15 04:04:53;;;;;;;0.50;0.50;;;;;;;11.43;73.58;95018.34;4978146;28;20203;-70
2023/01/15 04:07:21;;;;;;;0.53;0.50;;;;;;;11.40;73.48;95018.75;4979115;28;20222;-70
2023/01/15 04:09:48;;;;;;;1.07;0.57;;;;;;;11.42;73.66;95031.72;4978177;28;20234;-70
2023/01/15 04:12:14;;;;;;;0.47;0.47;;;;;;;11.38;73.88;95019.97;4978974;28;20200;-70
2023/01/15 04:14:41;;;;;;;0.77;0.57;;;;;;;11.34;74.65;95019.59;4977683;28;20223;-70
2023/01/15 04:17:09;;;;;;;0.60;0.50;;;;;;;11.45;74.35;95018.91;4977984;28;20230;-69
2023/01/15 04:19:36;;;;;;;1.20;0.47;;;;;;;11.42;74.02;95016.72;4978224;28;20200;-70
2023/01/15 04:22:02;;;;;;;0.73;0.53;;;;;;;11.42;74.67;95015.88;4979053;28;20211;-70
2023/01/15 04:24:29;;;;;;;1.33;0.50;;;;;;;11.38;74.62;95023.44;4977339;28;20203;-70
2023/01/15 04:26:55;;;;;;;0.50;0.50;;;;;;;11.45;74.47;95018.91;4978309;28;20825;-70
2023/01/15 04:29:22;;;;;;;0.50;0.50;;;;;;;11.49;74.90;95009.56;4978996;28;20227;-70
2023/01/15 04:31:51;;;;;;;0.93;0.50;;;;;;;11.34;75.35;95003.78;4977843;28;20195;-70
2023/01/15 04:34:19;;;;;;;0.40;0.40;;;;;;;11.48;75.25;95005.34;4977294;28;20261;-70
2023/01/15 04:36:46;;;;;;;0.97;0.60;;;;;;;11.38;75.32;95010.25;4978471;28;20234;-69
2023/01/15 04:39:13;;;;;;;0.40;0.40;;;;;;;11.38;75.77;95007.63;4978466;28;21262;-70
2023/01/15 04:44:26;;;;;;;1.67;0.57;;;;;;;11.44;76.38;94998.03;4977314;28;20242;-69
2023/01/15 04:46:53;;;;;;;3.23;0.83;;;;;;;11.48;76.44;95000.06;4978361;28;20319;-69
2023/01/15 04:49:21;;;;;;;0.77;0.50;;;;;;;11.40;77.00;94991.56;4977792;28;20711;-69
2023/01/15 04:51:48;;;;;;;0.40;0.40;;;;;;;11.34;77.40;94982.69;4977931;28;20195;-70
2023/01/15 04:54:16;;;;;;;0.70;0.40;;;;;;;11.36;77.53;94980.63;4977401;28;20203;-70
2023/01/15 04:56:44;;;;;;;0.53;0.53;;;;;;;11.33;78.00;94977.59;4977695;28;20223;-70
2023/01/15 04:59:12;;;;;;;4.07;1.97;;;;;;;11.29;78.23;94971.97;4978418;28;20199;-70
2023/01/15 05:01:38;;;;;;;0.87;0.50;;;;;;;11.22;78.59;94963.25;4977637;28;20200;-70
2023/01/15 05:04:05;;;;;;;0.47;0.43;;;;;;;11.24;78.88;94979.69;4977389;28;20206;-70
2023/01/15 05:06:34;;;;;;;0.60;0.57;;;;;;;11.38;78.85;94962.78;4977630;28;20206;-70
2023/01/15 05:09:01;;;;;;;0.57;0.40;;;;;;;11.27;79.24;94950.25;4977933;28;20222;-70
2023/01/15 05:11:27;;;;;;;0.67;0.40;;;;;;;11.23;79.61;94949.06;4977606;28;20207;-70
2023/01/15 05:13:54;;;;;;;0.70;0.50;;;;;;;11.25;80.17;94951.47;4977363;28;20211;-69
2023/01/15 05:16:23;;;;;;;1.57;0.33;;;;;;;11.22;80.66;94958.00;4977474;28;20203;-69
2023/01/15 05:18:50;;;;;;;0.30;0.30;;;;;;;11.15;80.84;94961.69;4977602;28;20211;-70
2023/01/15 05:21:20;;;;;;;1.33;0.43;;;;;;;11.18;81.01;94956.81;4977723;28;20207;-70
2023/01/15 05:23:49;;;;;;;1.27;0.60;;;;;;;11.28;81.41;94967.69;4977345;28;20282;-70
2023/01/15 05:26:16;;;;;;;0.57;0.37;;;;;;;11.23;81.34;94974.63;4977178;28;20659;-69
2023/01/15 05:28:43;;;;;;;1.47;0.77;;;;;;;11.22;81.72;94968.53;4977290;28;20234;-69
2023/01/15 05:31:11;;;;;;;1.20;0.60;;;;;;;11.28;81.83;94962.44;4978054;28;20207;-69
2023/01/15 05:33:38;;;;;;;2.10;0.93;;;;;;;11.19;81.85;94958.44;4976665;28;20218;-69
2023/01/15 05:36:07;;;;;;;3.00;1.07;;;;;;;11.27;82.19;94965.28;4978138;28;20207;-70
2023/01/15 05:38:33;;;;;;;0.73;0.53;;;;;;;11.22;82.12;94967.75;4978036;28;20771;-70
2023/01/15 05:41:47;;;;;;;0.70;0.50;;;;;;;11.38;82.02;94960.13;4978464;28;20203;-69
2023/01/15 05:43:50;;;;;;;0.67;0.60;;;;;;;11.27;82.45;94958.16;4976533;28;20291;-70
2023/01/15 05:46:17;;;;;;;0.37;0.37;;;;;;;11.37;82.32;94955.09;4977541;28;20214;-69
2023/01/15 05:48:44;;;;;;;0.50;0.40;;;;;;;11.28;82.55;94951.88;4977188;28;20230;-69
2023/01/15 05:51:10;;;;;;;0.47;0.47;;;;;;;11.35;82.63;94962.38;4977624;28;20223;-69
2023/01/15 05:53:37;;;;;;;0.40;0.30;;;;;;;11.35;82.73;94947.34;4976995;28;20203;-69
2023/01/15 05:56:05;;;;;;;1.37;0.57;;;;;;;11.50;82.61;94958.47;4977770;28;20207;-70
2023/01/15 05:58:32;;;;;;;0.33;0.33;;;;;;;11.39;83.27;94953.03;4976900;28;20223;-69
2023/01/15 06:00:59;;;;;;;0.83;0.67;;;;;;;11.37;83.41;94965.63;4977404;28;20207;-69
2023/01/15 06:03:26;;;;;;;0.37;0.30;;;;;;;11.38;83.84;94960.13;4977757;28;20244;-69
2023/01/15 06:05:53;;;;;;;0.60;0.60;;;;;;;11.42;83.82;94957.88;4977519;28;20207;-70
2023/01/15 06:08:21;;;;;;;0.40;0.40;;;;;;;11.50;83.49;94955.81;4980752;28;20229;-70
2023/01/15 06:10:48;;;;;;;0.53;0.40;;;;;;;11.41;84.09;94945.72;4980833;28;20238;-70
2023/01/15 06:13:17;;;;;;;0.40;0.40;;;;;;;11.54;83.57;94946.47;4980583;28;21298;-69
2023/01/15 06:15:44;;;;;;;0.40;0.40;;;;;;;11.45;83.60;94937.16;4979819;28;20238;-69
2023/01/15 06:18:11;;;;;;;0.47;0.40;;;;;;;11.47;83.83;94945.69;4980752;28;20234;-69
2023/01/15 06:20:37;;;;;;;0.30;0.30;;;;;;;11.47;83.67;94953.59;4980655;28;20633;-69
2023/01/15 06:23:04;;;;;;;0.50;0.50;;;;;;;11.47;83.79;94934.31;4981064;28;20203;-69
2023/01/15 06:25:34;;;;;;;0.30;0.30;;;;;;;11.57;83.56;94924.94;4980144;28;20195;-69
2023/01/15 06:28:00;;;;;;;0.40;0.40;;;;;;;11.61;83.28;94931.41;4980537;28;20230;-70
2023/01/15 06:30:28;;;;;;;0.30;0.30;;;;;;;11.63;83.60;94929.34;4980217;28;20219;-70
2023/01/15 06:32:54;;;;;;;0.30;0.30;;;;;;;11.54;83.88;94920.06;4981036;28;20213;-69
2023/01/15 06:35:21;;;;;;;0.43;0.40;;;;;;;11.57;84.06;94936.28;4979906;28;20199;-69
2023/01/15 06:37:49;;;;;;;0.30;0.30;;;;;;;11.62;84.16;94927.72;4980786;28;20223;-69
2023/01/15 06:40:16;;;;;;;0.60;0.50;;;;;;;11.53;84.67;94920.28;4980390;28;20206;-69
2023/01/15 06:48:19;;;;;;;1.03;0.60;;;;;;;11.50;84.01;94944.47;4978018;28;20664;-70
2023/01/15 06:50:46;;;;;;;0.70;0.70;;;;;;;11.38;84.56;94940.84;4980093;28;20233;-69
2023/01/15 06:53:12;;;;;;;0.50;0.50;;;;;;;11.41;84.62;94937.81;4979688;28;21016;-70
2023/01/15 06:55:39;;;;;;;0.90;0.70;;;;;;;11.29;85.50;94931.59;4979201;28;20203;-69
2023/01/15 06:58:05;;;;;;;0.77;0.40;;;;;;;11.28;87.23;94943.97;4980332;28;20718;-69
2023/01/15 07:00:33;;;;;;;0.60;0.50;;;;;;;11.29;88.22;94956.13;4979014;28;20195;-69
2023/01/15 07:03:00;;;;;;;1.77;0.77;;;;;;;11.22;88.50;94947.44;4979396;28;20207;-69
2023/01/15 07:05:27;;;;;;;0.40;0.40;;;;;;;11.23;88.70;94949.06;4979286;28;20203;-70
2023/01/15 07:07:54;;;;;;;0.50;0.43;;;;;;;11.25;89.90;94944.41;4980247;28;20227;-69
2023/01/15 07:10:21;;;;;;;2.53;0.90;;;;;;;11.15;90.39;94932.69;4979541;28;20234;-70
2023/01/15 07:12:47;;;;;;;0.60;0.60;;;;;;;11.14;90.27;94944.25;4980217;28;20203;-69
2023/01/15 07:15:13;;;;;;;0.63;0.50;;;;;;;11.15;89.76;94944.06;4979334;28;20214;-69
2023/01/15 07:17:41;;;;;;;0.43;0.43;;;;;;;11.33;89.03;94949.41;4979269;28;20789;-70
2023/01/15 07:20:09;;;;;;;0.80;0.70;;;;;;;11.30;88.66;94947.22;4978986;28;20199;-70
2023/01/15 07:22:35;;;;;;;1.70;0.77;;;;;;;11.24;88.66;94950.69;4979517;28;20257;-69
2023/01/15 07:25:02;;;;;;;0.60;0.50;;;;;;;11.19;88.36;94947.09;4978084;28;20277;-70
2023/01/15 07:27:28;;;;;;;1.30;0.80;;;;;;;11.30;87.80;94954.31;4979458;28;20219;-70
2023/01/15 07:29:55;;;;;;;0.40;0.40;;;;;;;11.26;87.64;94950.47;4979784;28;20596;-70
2023/01/15 07:32:21;;;;;;;1.00;0.60;;;;;;;11.36;87.38;94951.63;4979503;28;20199;-70
2023/01/15 07:34:49;;;;;;;0.53;0.53;;;;;;;11.40;87.61;94949.38;4978785;28;20210;-69
2023/01/15 07:37:15;;;;;;;0.43;0.40;;;;;;;11.27;87.52;94944.97;4979714;28;20230;-70
2023/01/15 07:39:42;;;;;;;0.93;0.43;;;;;;;11.37;87.77;94963.78;4979460;28;20210;-71
2023/01/15 07:50:24;;;;;;;0.80;0.60;;;;;;;11.36;88.78;94959.53;4978863;28;20229;-70
2023/01/15 07:52:51;;;;;;;0.80;0.50;;;;;;;11.24;89.16;94950.69;4979848;28;20667;-70
2023/01/15 07:55:17;;;;;;;1.17;0.60;;;;;;;11.32;89.26;94953.06;4978010;28;21249;-70
2023/01/15 07:57:44;;;;;;;0.67;0.53;;;;;;;11.24;90.37;94960.41;4978592;28;20319;-70
2023/01/15 08:00:13;;;;;;;0.93;0.50;;;;;;;11.32;90.96;94960.97;4979265;28;20203;-70
2023/01/15 08:02:39;;;;;;;0.57;0.57;;;;;;;11.11;92.09;94977.13;4978875;28;20203;-70
2023/01/15 08:05:07;;;;;;;0.40;0.40;;;;;;;11.10;92.76;94975.50;4978374;28;20213;-70
2023/01/15 08:07:38;;;;;;;2.73;0.43;;;;;;;11.16;93.73;94971.22;4978406;28;20227;-70
2023/01/15 08:10:05;;;;;;;0.50;0.50;;;;;;;10.99;95.74;94978.78;4978740;28;20631;-70
2023/01/15 08:15:16;;;;;;;1.47;0.73;;;;;;;10.76;98.42;94985.59;4978057;28;20268;-70
2023/01/15 08:17:44;;;;;;;0.83;0.53;;;;;;;10.85;99.24;95009.88;4978154;28;20774;-70
2023/01/15 08:20:14;;;;;;;0.40;0.40;;;;;;;10.74;100.00;95048.19;4978198;28;20203;-70
2023/01/15 08:22:43;;;;;;;0.50;0.40;;;;;;;10.56;100.00;95065.69;4978326;28;20235;-70
2023/01/15 08:25:12;;;;;;;0.50;0.30;;;;;;;9.53;100.00;95086.63;4978421;28;20258;-70
2023/01/15 08:27:39;;;;;;;2.90;0.40;;;;;;;8.98;100.00;95096.53;4978004;28;20226;-70
2023/01/15 08:30:08;;;;;;;0.30;0.30;;;;;;;8.72;100.00;95099.00;4974278;28;21469;-70
2023/01/15 08:32:34;;;;;;;0.67;0.40;;;;;;;8.41;100.00;95103.03;4977549;28;20691;-69
2023/01/15 08:35:01;;;;;;;3.30;0.83;;;;;;;7.98;100.00;95118.00;4976440;28;20771;-69
2023/01/15 08:37:27;;;;;;;1.53;0.50;;;;;;;8.11;100.00;95131.22;4977132;28;20227;-69
2023/01/15 08:39:55;;;;;;;2.40;0.73;;;;;;;8.19;100.00;95125.06;4978152;28;20211;-69
2023/01/15 08:42:22;;;;;;;0.40;0.40;;;;;;;7.97;100.00;95131.31;4976513;28;20218;-69
2023/01/15 08:44:49;;;;;;;0.37;0.33;;;;;;;8.03;100.00;95151.50;4976163;28;20222;-69
2023/01/15 08:47:16;;;;;;;0.30;0.30;;;;;;;7.85;100.00;95140.66;4977270;28;20238;-69
2023/01/15 08:49:43;;;;;;;0.37;0.37;;;;;;;7.38;100.00;95150.84;4977105;28;20222;-69
2023/01/15 08:52:10;;;;;;;0.27;0.27;;;;;;;7.23;100.00;95164.97;4977227;28;20281;-71
2023/01/15 08:54:36;;;;;;;0.27;0.27;;;;;;;7.12;100.00;95169.84;4974239;28;20200;-71
2023/01/15 08:57:04;;;;;;;0.20;0.20;;;;;;;7.21;100.00;95184.47;4976441;28;20809;-72
2023/01/15 08:59:31;;;;;;;0.30;0.30;;;;;;;6.78;100.00;95198.34;4976104;28;20304;-71
2023/01/15 09:01:57;;;;;;;0.20;0.20;;;;;;;6.75;100.00;95206.59;4976748;28;20199;-71
2023/01/15 09:04:24;;;;;;;0.30;0.30;;;;;;;6.69;100.00;95213.34;4975533;28;20207;-72
2023/01/15 09:06:50;;;;;;;0.23;0.23;;;;;;;6.45;100.00;95223.19;4976362;28;20801;-72
2023/01/15 09:09:17;;;;;;;0.30;0.30;;;;;;;6.52;100.00;95241.63;4976252;28;20203;-71
2023/01/15 09:11:45;;;;;;;0.77;0.30;;;;;;;6.45;100.00;95249.38;4977116;28;20227;-72
2023/01/15 09:14:15;;;;;;;0.27;0.27;;;;;;;6.46;100.00;95248.38;4975234;28;20206;-71
2023/01/15 09:16:42;;;;;;;0.30;0.30;;;;;;;6.53;100.00;95254.56;4976175;28;20214;-71
2023/01/15 09:19:10;;;;;;;0.80;0.60;;;;;;;6.46;100.00;95261.47;4976033;28;20203;-71
2023/01/15 09:21:36;;;;;;;0.30;0.30;;;;;;;6.30;100.00;95269.44;4976318;28;20214;-72
2023/01/15 09:24:03;;;;;;;0.20;0.20;;;;;;;6.46;100.00;95265.91;4976197;28;21293;-71
2023/01/15 09:26:31;;;;;;;0.30;0.30;;;;;;;6.55;100.00;95272.69;4976937;28;20237;-71
2023/01/15 09:28:58;;;;;;;0.30;0.30;;;;;;;6.59;100.00;95292.28;4976561;28;20223;-71
2023/01/15 09:31:27;;;;;;;0.30;0.30;;;;;;;6.61;100.00;95291.13;4975802;28;20226;-71
2023/01/15 09:33:53;;;;;;;0.40;0.40;;;;;;;6.53;100.00;95282.50;4976317;28;20207;-72
2023/01/15 09:36:24;;;;;;;0.30;0.30;;;;;;;6.49;100.00;95282.06;4976518;28;20226;-71
2023/01/15 09:38:50;;;;;;;0.60;0.50;;;;;;;6.59;100.00;95287.06;4976614;28;20660;-71
2023/01/15 09:44:17;;;;;;;1.23;0.60;;;;;;;6.57;100.00;95295.09;4978966;28;20210;-71
2023/01/15 09:46:58;;;;;;;0.80;0.60;;;;;;;6.52;100.00;95289.56;4979748;28;20218;-72
2023/01/15 09:49:38;;;;;;;1.10;0.57;;;;;;;6.60;100.00;95286.88;4980128;28;20746;-72
2023/01/15 09:52:13;;;;;;;0.53;0.50;;;;;;;6.61;100.00;95296.34;4979348;28;20241;-71
2023/01/15 09:54:57;;;;;;;6.30;1.80;;;;;;;6.80;100.00;95329.91;4975223;28;20206;-71
2023/01/15 09:57:25;;;;;;;2.23;1.30;;;;;;;6.59;100.00;95334.16;4978341;28;20820;-71
2023/01/15 09:59:59;;;;;;;1.23;0.93;;;;;;;6.53;100.00;95340.91;4979111;28;20207;-71
2023/01/15 10:02:34;;;;;;;0.40;0.40;;;;;;;6.60;100.00;95339.22;4978341;28;20210;-71
2023/01/15 10:05:09;;;;;;;1.03;0.80;;;;;;;6.70;100.00;95332.75;4979195;28;20210;-71
2023/01/15 10:07:42;;;;;;;0.93;0.73;;;;;;;6.75;100.00;95334.84;4977358;28;20249;-71
2023/01/15 10:10:13;;;;;;;4.63;1.70;;;;;;;6.66;100.00;95330.66;4978349;28;20203;-71
2023/01/15 10:12:43;;;;;;;10.63;2.80;;;;;;;6.53;100.00;95340.91;4979600;28;20222;-71
2023/01/15 10:15:35;;;;;;;21.73;4.73;;;;;;;6.66;100.00;95341.16;4978836;28;20219;-71
2023/01/15 10:18:06;;;;;;;22.57;5.77;;;;;;;6.58;100.00;95332.53;4977148;28;20228;-71
2023/01/15 10:20:49;;;;;;;13.33;2.80;;;;;;;6.54;100.00;95339.91;4979283;28;20249;-71
2023/01/15 10:23:44;;;;;;;26.07;5.80;;;;;;;6.60;100.00;95331.38;4979916;28;20238;-71
2023/01/15 10:26:16;;;;;;;21.33;3.57;;;;;;;6.54;100.00;95328.63;4970554;28;20209;-69
2023/01/15 10:28:58;;;;;;;17.87;4.33;;;;;;;6.75;100.00;95335.66;4979412;28;20790;-69
2023/01/15 10:31:50;;;;;;;17.17;4.73;;;;;;;6.75;100.00;95337.47;4979575;28;20223;-69
2023/01/15 10:34:33;;;;;;;6.17;1.80;;;;;;;6.75;100.00;95351.38;4975544;28;20211;-71
2023/01/15 10:37:06;;;;;;;6.87;2.63;;;;;;;6.63;100.00;95351.94;4979788;28;20231;-71
2023/01/15 10:39:41;;;;;;;2.80;1.30;;;;;;;6.59;100.00;95355.09;4980578;28;20207;-71
2023/01/15 10:42:17;;;;;;;2.70;1.70;;;;;;;6.73;100.00;95363.00;4980070;28;20221;-71
2023/01/15 10:44:52;;;;;;;3.70;1.57;;;;;;;6.61;100.00;95372.25;4979293;28;20273;-72
2023/01/15 10:47:30;;;;;;;0.53;0.53;;;;;;;6.65;100.00;95363.06;4979365;28;20231;-71
2023/01/15 10:49:59;;;;;;;0.77;0.70;;;;;;;6.59;100.00;95358.50;4979788;28;20249;-72
2023/01/15 10:52:31;;;;;;;0.57;0.57;;;;;;;6.59;100.00;95355.91;4977925;28;20233;-71
2023/01/15 10:55:06;;;;;;;1.67;1.00;;;;;;;6.69;100.00;95353.88;4978598;28;20265;-72
2023/01/15 10:57:44;;;;;;;2.57;2.20;;;;;;;6.81;100.00;95365.56;4979272;28;20316;-72
2023/01/15 11:00:12;;;;;;;7.10;1.53;;;;;;;6.80;100.00;95363.94;4980240;28;20214;-71
2023/01/15 11:02:42;;;;;;;13.57;6.10;;;;;;;6.88;100.00;95356.81;4979631;28;20698;-71
2023/01/15 11:05:15;;;;;;;5.60;2.23;;;;;;;7.06;100.00;95359.13;4979832;28;20210;-69
2023/01/15 11:07:45;;;;;;;4.57;2.27;;;;;;;7.13;100.00;95350.41;4979305;28;20238;-69
2023/01/15 11:10:14;;;;;;;2.53;1.57;;;;;;;7.19;100.00;95354.09;4980533;28;20589;-69
2023/01/15 11:21:13;;;;;;;3.00;1.77;;;;;;;7.38;100.00;95344.75;4980912;28;20249;-69
2023/01/15 11:23:40;;;;;;;3.23;1.70;;;;;;;7.20;100.00;95350.50;4978222;28;20203;-69
2023/01/15 11:26:06;;;;;;;6.13;1.80;;;;;;;7.14;100.00;95353.81;4979510;28;20203;-71
2023/01/15 11:28:38;;;;;;;6.63;2.83;;;;;;;7.33;100.00;95372.47;4979423;28;20231;-71
2023/01/15 11:31:06;;;;;;;7.10;2.80;;;;;;;7.22;100.00;95377.31;4980040;28;20227;-72
2023/01/15 11:33:32;;;;;;;5.10;2.33;;;;;;;7.06;100.00;95382.72;4979260;28;20203;-72
2023/01/15 11:36:01;;;;;;;6.27;2.20;;;;;;;7.10;100.00;95392.66;4979249;28;20215;-71
2023/01/15 11:38:30;;;;;;;3.27;1.90;;;;;;;7.11;100.00;95393.47;4978794;28;20238;-72
2023/01/15 11:40:59;;;;;;;5.17;1.90;;;;;;;7.09;100.00;95395.44;4979247;28;20215;-72
2023/01/15 11:52:03;;;;;;;0.47;0.47;;;;;;;6.70;100.00;95431.41;4979581;28;20254;-71
2023/01/15 11:54:36;;;;;;;1.50;0.50;;;;;;;6.78;100.00;95433.97;4978390;28;20210;-72
2023/01/15 11:57:02;;;;;;;2.73;0.30;;;;;;;6.56;100.00;95453.09;4978891;28;20227;-72
2023/01/15 11:59:29;;;;;;;0.57;0.50;;;;;;;6.52;100.00;95457.03;4979051;28;20207;-72
2023/01/15 12:01:59;;;;;;;1.77;0.40;;;;;;;6.65;100.00;95454.69;4978716;28;20211;-72
2023/01/15 12:04:33;;;;;;;0.60;0.60;;;;;;;6.71;100.00;95464.47;4977120;28;20200;-71
2023/01/15 12:07:01;;;;;;;1.20;0.90;;;;;;;6.67;100.00;95463.19;4978259;28;20719;-71
2023/01/15 12:09:40;;;;;;;1.43;0.90;;;;;;;6.58;100.00;95487.78;4978562;28;20199;-72
2023/01/15 12:12:19;;;;;;;0.53;0.53;;;;;;;6.61;100.00;95504.94;4978485;28;20230;-72
2023/01/15 12:15:19;;;;;;;1.83;0.93;;;;;;;6.70;100.00;95504.72;4978329;28;20211;-72
2023/01/15 12:18:01;;;;;;;0.47;0.47;;;;;;;6.60;100.00;95525.03;4979458;28;20322;-70
2023/01/15 12:20:36;;;;;;;1.07;0.80;;;;;;;6.35;100.00;95539.22;4975061;28;20214;-71
2023/01/15 12:23:21;;;;;;;1.10;0.40;;;;;;;6.33;100.00;95525.47;4977919;28;20206;-70
2023/01/15 12:25:58;;;;;;;0.77;0.47;;;;;;;6.00;100.00;95545.84;4974750;28;20222;-70
2023/01/15 12:28:30;;;;;;;0.40;0.40;;;;;;;6.08;100.00;95541.41;4976746;28;20248;-70
2023/01/15 12:31:01;;;;;;;1.63;0.53;;;;;;;6.04;100.00;95536.69;4977425;28;20220;-70